Time;durP1;ratioP1;P1;durP2;ratioP2;P2;SDS_P1;SDS_P2;PMS_P1;PMS_P2;Temp;Humidity;BMP_temperature;BMP_pressure;BME280_temperature;BME280_humidity;BME280_pressure;Samples;Min_cycle;Max_cycle;Signal;HPM_P1;HPM_P2
2021/05/22 00:02:38;;;;;;;;;7.25;7.00;;;;;20.71;46.96;98074.78;6212147;28;126747;-68
2021/05/22 00:05:41;;;;;;;;;7.50;6.50;;;;;20.72;46.80;98076.38;6230699;28;123904;-68
2021/05/22 00:08:44;;;;;;;;;6.60;6.00;;;;;20.59;46.87;98077.22;6215195;28;124512;-68
2021/05/22 00:11:46;;;;;;;;;6.60;6.60;;;;;20.53;47.36;98074.91;6230130;28;126861;-68
2021/05/22 00:14:49;;;;;;;;;7.60;6.00;;;;;20.36;47.21;98048.16;6215039;28;126345;-68
2021/05/22 00:17:53;;;;;;;;;6.40;6.00;;;;;20.47;47.24;98060.53;6215420;28;126294;-68
2021/05/22 00:20:57;;;;;;;;;7.60;7.00;;;;;20.41;47.76;98044.50;6224859;28;124926;-68
2021/05/22 00:24:00;;;;;;;;;7.20;6.00;;;;;20.27;47.85;98039.00;6212590;28;126111;-68
2021/05/22 00:27:02;;;;;;;;;5.25;5.25;;;;;20.15;48.19;98035.97;6237848;28;126585;-68
2021/05/22 00:30:08;;;;;;;;;8.00;6.60;;;;;20.18;48.59;98024.41;6220718;27;126630;-68
2021/05/22 00:33:11;;;;;;;;;7.00;7.00;;;;;20.14;48.27;98017.91;6225118;28;124811;-68
2021/05/22 00:36:14;;;;;;;;;6.00;6.00;;;;;20.12;48.28;98014.69;6214499;28;123737;-68
2021/05/22 00:39:17;;;;;;;;;7.20;6.80;;;;;20.03;48.34;98009.13;6223407;28;126354;-68
2021/05/22 00:42:20;;;;;;;;;7.00;6.00;;;;;20.01;48.53;98003.13;6238138;28;126216;-68
2021/05/22 00:45:24;;;;;;;;;8.00;8.00;;;;;20.01;48.41;97994.94;6239245;27;125784;-68
2021/05/22 00:48:27;;;;;;;;;7.25;7.00;;;;;19.98;48.41;97994.72;6235014;27;124762;-68
2021/05/22 00:51:30;;;;;;;;;7.00;7.00;;;;;19.99;48.29;97988.16;6214511;28;126401;-68
2021/05/22 00:54:32;;;;;;;;;7.00;7.00;;;;;19.95;47.96;98003.53;6214073;28;125769;-68
2021/05/22 00:57:37;;;;;;;;;8.00;8.00;;;;;19.92;48.21;98010.44;6214219;28;125266;-68
2021/05/22 01:00:43;;;;;;;;;7.75;7.00;;;;;19.87;48.13;98014.06;6233936;28;125599;-68
2021/05/22 01:03:52;;;;;;;;;7.00;6.60;;;;;19.81;48.38;98014.47;6239079;27;125727;-68
2021/05/22 01:06:54;;;;;;;;;7.75;7.00;;;;;19.74;48.53;98012.13;6239387;27;124298;-68
2021/05/22 01:09:58;;;;;;;;;8.00;7.00;;;;;19.70;48.66;98007.56;6224170;27;124017;-68
2021/05/22 01:13:02;;;;;;;;;7.00;7.00;;;;;19.65;48.67;98000.25;6213076;28;126143;-68
2021/05/22 01:16:06;;;;;;;;;8.40;7.40;;;;;19.51;49.06;98001.34;6211563;28;126351;-68
2021/05/22 01:19:17;;;;;;;;;8.00;7.80;;;;;19.40;49.45;98006.97;6212386;28;124842;-68
2021/05/22 01:22:20;;;;;;;;;8.00;7.00;;;;;19.37;49.12;98002.09;6215318;28;125000;-68
2021/05/22 01:25:28;;;;;;;;;7.00;6.00;;;;;19.32;49.37;98002.19;6212258;28;126040;-68
2021/05/22 01:28:33;;;;;;;;;7.60;7.60;;;;;19.29;49.44;98007.47;6221935;28;126622;-67
2021/05/22 01:31:37;;;;;;;;;7.60;7.00;;;;;19.15;49.54;97992.94;6211765;28;124728;-68
2021/05/22 01:34:39;;;;;;;;;8.67;7.00;;;;;19.17;49.36;97994.25;6215407;28;124701;-67
2021/05/22 01:37:42;;;;;;;;;9.00;7.60;;;;;19.18;49.06;97986.88;6238314;27;126458;-67
2021/05/22 01:40:46;;;;;;;;;7.60;7.00;;;;;19.14;49.05;97977.66;6217465;28;126658;-67
2021/05/22 01:43:54;;;;;;;;;7.00;7.00;;;;;19.10;49.29;97971.19;6228718;28;124702;-67
2021/05/22 01:46:59;;;;;;;;;9.20;9.00;;;;;19.07;49.00;97967.09;6212628;28;125099;-68
2021/05/22 01:50:04;;;;;;;;;8.50;8.00;;;;;18.91;49.57;97939.22;6211578;28;123876;-68
2021/05/22 01:53:09;;;;;;;;;9.00;8.00;;;;;19.02;49.40;97964.44;6212842;28;124663;-68
2021/05/22 01:56:14;;;;;;;;;9.00;8.40;;;;;19.02;49.12;97954.34;6211794;28;126895;-68
2021/05/22 01:59:18;;;;;;;;;8.00;7.60;;;;;19.03;48.85;97952.44;6219886;28;124792;-68
2021/05/22 02:02:21;;;;;;;;;8.00;8.00;;;;;19.02;48.70;97943.41;6235979;28;125267;-68
2021/05/22 02:05:25;;;;;;;;;9.00;9.00;;;;;19.07;48.77;97941.69;6236356;28;124014;-68
2021/05/22 02:08:29;;;;;;;;;8.00;7.00;;;;;19.09;48.47;97939.50;6228413;28;126384;-68
2021/05/22 02:11:37;;;;;;;;;10.00;9.00;;;;;19.11;48.41;97937.28;6211864;28;125605;-68
2021/05/22 02:14:42;;;;;;;;;9.00;9.00;;;;;19.09;48.26;97940.31;6227879;28;124153;-67
2021/05/22 02:17:47;;;;;;;;;8.00;8.00;;;;;19.11;48.24;97934.56;6212672;28;125571;-67
2021/05/22 02:20:54;;;;;;;;;10.00;9.00;;;;;19.10;48.17;97941.94;6227493;28;125875;-67
2021/05/22 02:23:58;;;;;;;;;11.00;8.50;;;;;19.10;48.17;97939.19;6212539;28;124789;-67
2021/05/22 02:27:02;;;;;;;;;8.60;8.60;;;;;19.06;48.25;97946.34;6211958;28;125019;-67
2021/05/22 02:30:07;;;;;;;;;7.75;7.25;;;;;19.03;48.29;97936.84;6212117;28;126428;-67
2021/05/22 02:33:12;;;;;;;;;8.75;8.00;;;;;19.03;48.10;97938.75;6212566;28;124088;-67
2021/05/22 02:36:15;;;;;;;;;10.00;9.00;;;;;18.99;48.14;97940.47;6229775;28;125045;-67
2021/05/22 02:39:18;;;;;;;;;10.00;10.00;;;;;18.89;48.42;97932.47;6235513;28;125039;-67
2021/05/22 02:42:23;;;;;;;;;10.00;8.50;;;;;18.96;48.43;97950.06;6237107;27;125875;-67
2021/05/22 02:45:28;;;;;;;;;10.00;8.00;;;;;18.92;48.31;97948.22;6236015;28;124891;-67
2021/05/22 02:48:35;;;;;;;;;9.00;8.00;;;;;18.86;48.51;97939.31;6235614;27;124625;-67
2021/05/22 02:51:39;;;;;;;;;9.40;9.00;;;;;18.83;48.58;97937.19;6219665;28;126052;-67
2021/05/22 02:54:52;;;;;;;;;10.80;9.00;;;;;18.77;48.41;97938.38;6211872;28;125774;-67
2021/05/22 02:57:57;;;;;;;;;8.60;8.00;;;;;18.75;48.42;97937.06;6213565;28;125832;-67
2021/05/22 03:01:01;;;;;;;;;9.00;9.00;;;;;18.75;48.45;97935.13;6235183;27;127181;-67
2021/05/22 03:04:05;;;;;;;;;10.00;10.00;;;;;18.73;48.51;97928.34;6236623;27;126034;-67
2021/05/22 03:07:08;;;;;;;;;9.00;9.00;;;;;18.65;48.70;97934.50;6235126;28;126129;-67
2021/05/22 03:10:12;;;;;;;;;10.25;9.25;;;;;18.66;48.68;97936.13;6210557;28;126116;-67
2021/05/22 03:13:15;;;;;;;;;7.40;7.40;;;;;18.60;49.01;97936.19;6211189;28;126166;-67
2021/05/22 03:16:19;;;;;;;;;9.00;8.75;;;;;18.57;49.08;97942.22;6211504;28;126345;-67
2021/05/22 03:19:21;;;;;;;;;10.20;9.00;;;;;18.47;49.16;97942.34;6209968;28;124633;-67
2021/05/22 03:22:24;;;;;;;;;9.80;8.80;;;;;18.41;49.29;97949.00;6211092;28;124415;-67
2021/05/22 03:25:27;;;;;;;;;11.00;9.00;;;;;18.24;49.30;97936.97;6211295;28;125951;-67
2021/05/22 03:28:31;;;;;;;;;9.00;8.00;;;;;18.30;49.61;97952.97;6222594;28;126600;-67
2021/05/22 03:31:34;;;;;;;;;10.00;9.00;;;;;18.38;49.81;97948.75;6235331;27;126273;-67
2021/05/22 03:34:37;;;;;;;;;7.00;7.00;;;;;18.44;49.78;97942.13;6221462;27;124963;-67
2021/05/22 03:37:40;;;;;;;;;10.00;8.40;;;;;18.54;49.76;97942.00;6210620;28;126067;-67
2021/05/22 03:40:42;;;;;;;;;9.00;8.00;;;;;18.65;49.53;97945.41;6211140;28;126158;-67
2021/05/22 03:43:46;;;;;;;;;11.40;9.60;;;;;18.71;49.64;97934.13;6210986;28;127064;-67
2021/05/22 03:46:49;;;;;;;;;9.00;8.00;;;;;18.74;49.84;97938.97;6209486;28;126218;-68
2021/05/22 03:49:51;;;;;;;;;8.60;8.60;;;;;18.71;49.87;97941.50;6211262;28;125684;-67
2021/05/22 03:52:54;;;;;;;;;9.00;8.00;;;;;18.71;49.88;97922.38;6211031;28;125126;-68
2021/05/22 03:55:58;;;;;;;;;9.00;9.00;;;;;18.73;49.88;97923.69;6226317;28;124876;-68
2021/05/22 03:59:01;;;;;;;;;8.40;8.40;;;;;18.74;49.83;97925.31;6226203;28;124635;-68
2021/05/22 04:02:04;;;;;;;;;7.60;7.00;;;;;18.79;49.75;97924.44;6221916;28;126010;-68
2021/05/22 04:05:08;;;;;;;;;9.80;9.80;;;;;18.84;49.82;97919.69;6234066;27;124935;-68
2021/05/22 04:08:11;;;;;;;;;10.00;9.60;;;;;18.90;49.78;97912.22;6220344;28;125383;-68
2021/05/22 04:11:14;;;;;;;;;9.40;8.40;;;;;18.92;49.96;97918.19;6235256;27;126451;-68
2021/05/22 04:14:18;;;;;;;;;8.50;8.50;;;;;18.96;50.00;97908.31;6235688;27;126078;-68
2021/05/22 04:17:20;;;;;;;;;9.00;7.60;;;;;19.02;49.68;97907.09;6227611;27;123311;-68
2021/05/22 04:20:23;;;;;;;;;11.00;10.00;;;;;19.06;49.48;97913.56;6210501;28;124931;-68
2021/05/22 04:23:26;;;;;;;;;8.00;7.40;;;;;19.04;49.72;97915.81;6210576;28;125806;-68
2021/05/22 04:26:29;;;;;;;;;10.00;9.00;;;;;18.71;49.45;97875.97;6227898;28;125464;-68
2021/05/22 04:29:32;;;;;;;;;9.25;8.00;;;;;18.97;49.50;97915.38;6233319;28;123718;-68
2021/05/22 04:32:35;;;;;;;;;8.00;7.00;;;;;19.03;49.47;97925.09;6230947;27;124997;-68
2021/05/22 04:35:38;;;;;;;;;8.00;8.00;;;;;19.12;49.11;97927.97;6213842;27;125296;-68
2021/05/22 04:38:41;;;;;;;;;10.20;10.00;;;;;19.14;49.41;97918.38;6215273;28;126544;-68
2021/05/22 04:41:44;;;;;;;;;9.00;9.00;;;;;19.20;49.60;97906.25;6210143;28;125188;-68
2021/05/22 04:44:47;;;;;;;;;10.60;10.00;;;;;19.29;49.31;97904.44;6208717;28;124752;-68
2021/05/22 04:47:50;;;;;;;;;10.00;10.00;;;;;19.37;49.52;97905.63;6227221;28;126038;-68
2021/05/22 04:50:54;;;;;;;;;10.00;9.20;;;;;19.53;49.21;97909.75;6227613;27;126136;-68
2021/05/22 04:54:03;;;;;;;;;11.00;11.00;;;;;19.52;49.03;97883.50;6228822;27;126177;-68
2021/05/22 04:57:07;;;;;;;;;10.80;10.00;;;;;19.94;48.67;97906.97;6196240;28;124676;-68
2021/05/22 05:00:11;;;;;;;;;11.60;9.60;;;;;20.11;48.88;97904.41;6225435;28;124884;-68
2021/05/22 05:03:14;;;;;;;;;7.80;7.00;;;;;20.18;48.43;97896.59;6215225;27;124687;-68
2021/05/22 05:06:17;;;;;;;;;7.80;7.80;;;;;20.38;47.60;97902.78;6227503;28;126863;-68
2021/05/22 05:09:21;;;;;;;;;9.00;9.00;;;;;20.55;46.37;97908.38;6237586;28;126613;-68
2021/05/22 05:12:23;;;;;;;;;9.00;9.00;;;;;20.70;45.89;97905.28;6238490;27;124221;-68
2021/05/22 05:15:28;;;;;;;;;8.40;8.00;;;;;20.97;45.95;97918.81;6238988;27;126208;-68
2021/05/22 05:18:31;;;;;;;;;7.00;6.00;;;;;21.10;44.15;97915.22;6238503;27;124850;-68
2021/05/22 05:21:34;;;;;;;;;6.00;6.00;;;;;21.24;43.05;97926.13;6221963;28;126616;-68
2021/05/22 05:24:37;;;;;;;;;5.25;5.00;;;;;21.41;42.40;97931.69;6228898;27;126032;-68
2021/05/22 05:27:40;;;;;;;;;6.60;6.60;;;;;21.64;42.34;97937.13;6213672;28;125041;-68
2021/05/22 05:30:43;;;;;;;;;7.00;6.40;;;;;21.86;42.29;97945.28;6228995;28;126306;-68
2021/05/22 05:33:46;;;;;;;;;9.75;9.00;;;;;22.03;43.25;97945.38;6213305;28;124756;-68
2021/05/22 05:36:49;;;;;;;;;6.60;6.60;;;;;22.16;42.84;97943.63;6211767;28;124469;-68
2021/05/22 05:39:51;;;;;;;;;9.50;9.50;;;;;22.22;43.43;97950.59;6235758;28;125043;-68
2021/05/22 05:42:55;;;;;;;;;9.00;9.00;;;;;22.14;43.82;97930.19;6236735;28;124721;-68
2021/05/22 05:45:58;;;;;;;;;10.00;9.00;;;;;22.22;43.92;97939.59;6226039;28;126716;-68
2021/05/22 05:49:01;;;;;;;;;11.00;10.00;;;;;22.27;43.63;97921.03;6222027;27;126719;-68
2021/05/22 05:52:04;;;;;;;;;9.00;8.20;;;;;22.53;43.46;97931.25;6203187;28;125322;-68
2021/05/22 05:55:08;;;;;;;;;8.00;8.00;;;;;22.70;41.98;97933.97;6223843;28;124102;-68
2021/05/22 05:58:11;;;;;;;;;8.67;8.67;;;;;22.93;41.06;97935.44;6217586;27;126040;-68
2021/05/22 06:01:14;;;;;;;;;8.00;8.00;;;;;23.21;41.12;97938.66;6211651;28;125356;-68
2021/05/22 06:04:17;;;;;;;;;7.25;7.25;;;;;23.32;39.87;97948.16;6212743;28;124741;-68
2021/05/22 06:07:19;;;;;;;;;8.75;7.75;;;;;23.42;39.49;97953.31;6212836;28;126522;-68
2021/05/22 06:10:22;;;;;;;;;8.00;7.00;;;;;23.45;39.45;97960.13;6232168;28;125266;-68
2021/05/22 06:13:28;;;;;;;;;7.00;7.00;;;;;23.47;39.87;97975.16;6236191;27;125050;-68
2021/05/22 06:16:34;;;;;;;;;9.00;7.80;;;;;23.49;39.49;97966.59;6236535;27;124770;-68
2021/05/22 06:19:36;;;;;;;;;6.60;6.60;;;;;23.54;39.44;97950.72;6236158;28;125441;-68
2021/05/22 06:22:39;;;;;;;;;7.00;6.60;;;;;23.62;39.75;97954.56;6237693;27;126195;-68
2021/05/22 06:25:42;;;;;;;;;7.60;7.20;;;;;23.63;39.77;97946.00;6238116;27;125777;-68
2021/05/22 06:28:45;;;;;;;;;7.00;6.80;;;;;23.70;40.15;97953.75;6237801;27;125504;-68
2021/05/22 06:31:49;;;;;;;;;7.00;7.00;;;;;23.80;40.13;97953.34;6237829;27;126205;-68
2021/05/22 06:34:52;;;;;;;;;8.00;7.00;;;;;23.94;40.09;97953.16;6237241;27;126120;-68
2021/05/22 06:37:54;;;;;;;;;8.00;7.50;;;;;23.94;39.63;97962.22;6236100;28;126272;-68
2021/05/22 06:40:57;;;;;;;;;7.00;7.00;;;;;24.04;39.65;97964.56;6237437;27;124916;-68
2021/05/22 06:44:00;;;;;;;;;8.00;7.00;;;;;24.07;39.52;97960.38;6235406;28;126310;-68
2021/05/22 06:47:04;;;;;;;;;7.00;6.00;;;;;24.06;39.28;97945.78;6234624;27;126206;-68
2021/05/22 06:50:09;;;;;;;;;7.00;6.00;;;;;24.29;38.98;97945.53;6228981;27;124586;-68
2021/05/22 06:53:11;;;;;;;;;7.40;7.00;;;;;24.41;38.49;97945.59;6210020;28;124389;-68
2021/05/22 06:56:14;;;;;;;;;6.00;6.00;;;;;24.53;38.18;97940.97;6211290;28;124173;-68
2021/05/22 06:59:17;;;;;;;;;5.00;4.00;;;;;24.64;36.13;97929.56;6210003;28;125088;-68
2021/05/22 07:02:20;;;;;;;;;3.40;3.40;;;;;24.58;34.50;97932.50;6217388;28;125122;-68
2021/05/22 07:05:23;;;;;;;;;6.00;5.00;;;;;24.50;35.43;97927.88;6213500;28;126186;-68
2021/05/22 07:08:26;;;;;;;;;4.00;3.75;;;;;24.60;35.37;97951.47;6219421;28;126170;-68
2021/05/22 07:11:28;;;;;;;;;5.00;4.00;;;;;24.65;35.82;97958.72;6234284;27;126837;-68
2021/05/22 07:14:31;;;;;;;;;5.40;5.00;;;;;24.58;36.35;97951.78;6240926;27;125772;-68
2021/05/22 07:17:35;;;;;;;;;5.00;5.00;;;;;24.54;36.29;97953.63;6235904;27;127049;-68
2021/05/22 07:20:38;;;;;;;;;5.00;4.20;;;;;24.51;34.88;97953.47;6231940;28;124808;-67
2021/05/22 07:23:40;;;;;;;;;4.60;4.20;;;;;24.47;35.31;97941.53;6227999;28;123456;-68
2021/05/22 07:26:43;;;;;;;;;5.00;5.00;;;;;24.57;35.71;97932.88;6230757;27;125493;-68
2021/05/22 07:29:50;;;;;;;;;5.40;5.40;;;;;24.58;36.11;97935.25;6232748;28;122594;-68
2021/05/22 07:32:54;;;;;;;;;4.00;4.00;;;;;24.51;34.86;97940.53;6234478;27;126130;-68
2021/05/22 07:35:57;;;;;;;;;5.00;5.00;;;;;24.45;33.79;97939.09;6231563;27;126219;-68
2021/05/22 07:39:00;;;;;;;;;6.00;5.00;;;;;24.55;33.83;97927.69;6234336;27;124525;-68
2021/05/22 07:42:03;;;;;;;;;5.00;5.00;;;;;24.59;34.38;97930.56;6210174;28;125011;-68
2021/05/22 07:45:08;;;;;;;;;6.00;6.00;;;;;24.61;34.65;97942.06;6226622;28;125167;-68
2021/05/22 07:48:12;;;;;;;;;5.00;5.00;;;;;24.64;34.30;97944.13;6215002;27;126484;-68
2021/05/22 07:51:15;;;;;;;;;5.00;5.00;;;;;24.91;34.89;97923.53;6235250;27;126565;-68
2021/05/22 07:54:18;;;;;;;;;6.00;5.00;;;;;24.99;34.03;97939.16;6215022;27;126248;-67
2021/05/22 07:57:20;;;;;;;;;5.00;5.00;;;;;25.18;34.38;97939.47;6209316;28;126071;-67
2021/05/22 08:00:24;;;;;;;;;6.00;5.00;;;;;25.23;33.48;97922.69;6209388;28;124873;-67
2021/05/22 08:03:31;;;;;;;;;6.00;6.00;;;;;25.30;33.84;97938.72;6213924;28;126415;-67
2021/05/22 08:06:48;;;;;;;;;6.00;5.00;;;;;25.31;33.57;97943.09;6231752;28;124798;-68
2021/05/22 08:09:51;;;;;;;;;5.60;5.60;;;;;25.36;34.25;97945.63;6223750;27;126197;-67
2021/05/22 08:12:54;;;;;;;;;5.00;4.60;;;;;25.39;33.60;97940.22;6209438;28;126119;-66
2021/05/22 08:15:57;;;;;;;;;5.00;4.00;;;;;25.32;33.56;97945.47;6214949;28;125196;-68
2021/05/22 08:19:01;;;;;;;;;3.00;3.00;;;;;25.29;32.61;97937.09;6213314;28;126739;-67
2021/05/22 08:22:03;;;;;;;;;5.25;5.00;;;;;25.22;32.88;97937.63;6209990;28;125075;-67
2021/05/22 08:25:13;;;;;;;;;4.00;4.00;;;;;25.07;33.71;97938.28;6213272;28;123990;-67
2021/05/22 08:28:20;;;;;;;;;5.60;4.60;;;;;24.85;34.37;97914.63;6227825;27;124730;-67
2021/05/22 08:31:24;;;;;;;;;4.60;4.60;;;;;24.95;33.56;97919.75;6228985;27;124877;-68
2021/05/22 08:34:27;;;;;;;;;5.00;5.00;;;;;24.94;34.71;97915.38;6219104;27;125840;-68
2021/05/22 08:37:30;;;;;;;;;4.00;4.00;;;;;24.90;35.34;97910.88;6223006;28;126337;-68
2021/05/22 08:40:33;;;;;;;;;4.00;4.00;;;;;24.83;34.37;97910.56;6223392;28;126440;-68
2021/05/22 08:43:37;;;;;;;;;5.00;5.00;;;;;24.70;34.52;97918.00;6222741;28;125062;-68
2021/05/22 08:46:40;;;;;;;;;6.00;6.00;;;;;24.38;34.77;97900.28;6223447;27;125888;-68
2021/05/22 08:49:43;;;;;;;;;8.00;7.00;;;;;24.49;35.66;97914.44;6226060;28;126914;-68
2021/05/22 08:52:48;;;;;;;;;8.80;7.00;;;;;24.33;35.89;97896.91;6216194;28;126821;-68
2021/05/22 08:55:50;;;;;;;;;6.00;6.00;;;;;24.26;36.12;97902.94;6207222;28;124006;-67
2021/05/22 08:58:53;;;;;;;;;6.00;6.00;;;;;24.23;36.61;97905.56;6228893;27;126325;-67
2021/05/22 09:01:57;;;;;;;;;8.25;7.00;;;;;24.19;36.20;97902.66;6225939;28;126555;-67
2021/05/22 09:05:21;;;;;;;;;4.60;4.00;;;;;24.21;36.12;97903.13;6221337;28;124999;-67
2021/05/22 09:08:24;;;;;;;;;6.00;5.00;;;;;24.29;35.83;97907.75;6223411;28;123635;-67
2021/05/22 09:11:27;;;;;;;;;5.75;5.75;;;;;24.33;35.98;97908.72;6222434;27;124961;-67
2021/05/22 09:14:42;;;;;;;;;6.60;6.60;;;;;24.24;36.67;97893.41;6224322;27;126287;-68
2021/05/22 09:17:48;;;;;;;;;5.00;5.00;;;;;24.10;36.62;97899.13;6219180;28;124135;-67
2021/05/22 09:20:53;;;;;;;;;6.00;6.00;;;;;24.15;37.30;97921.75;6213966;28;124724;-67
2021/05/22 09:23:58;;;;;;;;;8.00;6.00;;;;;24.08;37.76;97926.19;6194897;28;124556;-67
2021/05/22 09:27:09;;;;;;;;;6.60;6.00;;;;;23.96;37.75;97939.84;6217927;28;125764;-67
2021/05/22 09:30:14;;;;;;;;;6.00;6.00;;;;;23.72;38.83;97945.94;6212833;28;125824;-67
2021/05/22 09:33:19;;;;;;;;;7.00;6.00;;;;;23.66;39.50;97961.03;6211507;28;125699;-67
2021/05/22 09:36:23;;;;;;;;;7.00;6.00;;;;;23.47;39.90;97968.84;6222391;27;126468;-68
2021/05/22 09:39:26;;;;;;;;;7.00;7.00;;;;;23.29;41.33;97985.38;6218978;28;125949;-69
2021/05/22 09:42:31;;;;;;;;;7.60;7.00;;;;;23.15;41.77;97990.25;6227974;27;126201;-68
2021/05/22 09:45:35;;;;;;;;;10.00;9.00;;;;;22.87;43.21;97992.50;6234359;28;126038;-67
2021/05/22 09:48:38;;;;;;;;;8.20;7.20;;;;;22.67;44.20;98006.88;6234477;27;124643;-68
2021/05/22 09:51:56;;;;;;;;;10.20;8.60;;;;;22.52;44.94;98012.84;6226864;27;126740;-67
2021/05/22 09:54:59;;;;;;;;;9.00;9.00;;;;;22.43;45.66;98014.75;6230681;28;127261;-68
2021/05/22 09:58:01;;;;;;;;;10.00;9.00;;;;;22.24;46.59;98023.25;6235558;27;126756;-68
2021/05/22 10:01:05;;;;;;;;;8.00;8.00;;;;;22.21;47.12;98037.63;6237530;27;126182;-68
2021/05/22 10:04:18;;;;;;;;;8.40;7.80;;;;;22.01;46.56;98030.75;6232646;28;126979;-68
2021/05/22 10:07:34;;;;;;;;;7.20;7.20;;;;;21.58;47.32;98038.75;6214329;28;124565;-67
2021/05/22 10:10:40;;;;;;;;;9.00;9.00;;;;;21.40;47.17;98052.66;6221630;28;126110;-67
2021/05/22 10:13:43;;;;;;;;;6.50;6.00;;;;;21.08;48.26;98059.16;6223501;28;124764;-69
2021/05/22 10:16:46;;;;;;;;;8.00;8.00;;;;;20.87;48.78;98052.50;6221215;28;126188;-69
2021/05/22 10:19:49;;;;;;;;;7.00;6.60;;;;;20.58;49.91;98058.34;6218555;28;125089;-68
2021/05/22 10:22:53;;;;;;;;;8.00;8.00;;;;;20.44;49.83;98063.03;6222911;28;124089;-68
2021/05/22 10:25:57;;;;;;;;;6.60;6.00;;;;;20.29;50.06;98056.72;6220981;27;125851;-67
2021/05/22 10:29:00;;;;;;;;;6.00;5.60;;;;;19.95;50.84;98060.97;6226763;28;125840;-68
2021/05/22 10:32:04;;;;;;;;;5.67;5.00;;;;;19.84;50.79;98049.44;6237655;27;124529;-69
2021/05/22 10:35:11;;;;;;;;;6.00;5.00;;;;;19.75;51.45;98053.94;6236637;27;124771;-68
2021/05/22 10:38:39;;;;;;;;;6.00;5.60;;;;;19.57;51.46;98054.84;6237668;27;126431;-68
2021/05/22 10:41:42;;;;;;;;;4.80;4.20;;;;;19.45;51.74;98047.91;6236259;28;124961;-67
2021/05/22 10:44:45;;;;;;;;;5.00;5.00;;;;;19.46;52.22;98056.94;6237447;27;124594;-67
2021/05/22 10:47:48;;;;;;;;;7.00;6.20;;;;;19.41;52.42;98063.25;6237542;27;126853;-68
2021/05/22 10:50:51;;;;;;;;;5.00;4.80;;;;;19.28;53.15;98065.94;6217490;28;126795;-68
2021/05/22 10:53:56;;;;;;;;;4.75;4.00;;;;;19.31;53.09;98071.63;6212668;28;126330;-68
2021/05/22 10:57:03;;;;;;;;;4.00;4.00;;;;;19.29;53.34;98079.31;6212658;28;126929;-68
2021/05/22 11:00:23;;;;;;;;;5.20;5.00;;;;;19.36;53.47;98076.19;6218837;28;124674;-68
2021/05/22 11:03:26;;;;;;;;;6.00;5.00;;;;;19.28;52.79;98083.16;6237505;27;125597;-69
2021/05/22 11:06:40;;;;;;;;;4.75;4.75;;;;;19.42;52.95;98091.41;6236962;27;126326;-68
2021/05/22 11:09:49;;;;;;;;;4.20;3.80;;;;;19.26;52.03;98093.56;6237438;27;126327;-68
2021/05/22 11:12:52;;;;;;;;;3.00;3.00;;;;;19.26;51.57;98093.56;6234946;28;124805;-68
2021/05/22 11:15:56;;;;;;;;;4.25;4.00;;;;;19.35;51.49;98093.72;6237578;27;96488;-69
2021/05/22 11:19:04;;;;;;;;;5.00;4.00;;;;;19.27;51.64;98094.38;6232699;28;124521;-68
2021/05/22 11:22:15;;;;;;;;;3.00;3.00;;;;;19.33;51.93;98090.47;6211916;28;124521;-68
2021/05/22 11:25:20;;;;;;;;;4.00;4.00;;;;;19.41;52.21;98092.50;6218531;28;125769;-67
2021/05/22 11:28:23;;;;;;;;;4.50;4.00;;;;;19.44;51.34;98100.97;6211571;28;125333;-68
2021/05/22 11:31:33;;;;;;;;;5.00;5.00;;;;;19.54;51.54;98104.66;6220497;28;126036;-67
2021/05/22 11:34:35;;;;;;;;;4.00;4.00;;;;;19.70;50.82;98095.88;6236288;27;124345;-67
2021/05/22 11:37:38;;;;;;;;;4.20;4.00;;;;;19.75;51.33;98076.66;6234609;27;126647;-67
2021/05/22 11:40:48;;;;;;;;;3.00;3.00;;;;;19.93;51.15;98107.81;6217142;28;126184;-67
2021/05/22 11:44:04;;;;;;;;;4.20;4.20;;;;;19.78;51.27;98105.34;6230121;27;125735;-67
2021/05/22 11:47:06;;;;;;;;;3.00;3.00;;;;;19.76;50.72;98104.81;6235917;27;126027;-67
2021/05/22 11:50:24;;;;;;;;;3.80;3.80;;;;;19.83;52.04;98106.06;6224429;27;126485;-67
2021/05/22 11:53:28;;;;;;;;;4.00;4.00;;;;;19.80;50.44;98105.81;6210741;28;124742;-67
2021/05/22 11:56:33;;;;;;;;;4.00;4.00;;;;;19.65;50.70;98104.16;6209728;28;125008;-67
2021/05/22 11:59:38;;;;;;;;;5.00;5.00;;;;;19.50;50.64;98109.88;6221095;28;123723;-67
2021/05/22 12:02:42;;;;;;;;;4.00;4.00;;;;;19.52;51.30;98112.34;6230778;28;123594;-68
2021/05/22 12:05:44;;;;;;;;;5.00;5.00;;;;;19.51;50.99;98108.78;6239515;28;125130;-68
2021/05/22 12:09:01;;;;;;;;;5.50;5.00;;;;;19.50;51.49;98098.16;6239969;27;124871;-68
2021/05/22 12:12:08;;;;;;;;;5.00;3.80;;;;;19.48;51.71;98105.84;6234584;27;124875;-67
2021/05/22 12:15:22;;;;;;;;;4.00;4.00;;;;;19.38;51.80;98112.25;6221943;28;126522;-68
2021/05/22 12:18:27;;;;;;;;;5.00;4.00;;;;;19.54;51.14;98116.41;6214457;28;125851;-68
2021/05/22 12:21:32;;;;;;;;;2.80;2.80;;;;;19.61;51.10;98105.88;6223132;28;124558;-67
2021/05/22 12:24:36;;;;;;;;;4.00;4.00;;;;;19.68;51.06;98120.00;6218718;28;124594;-68
2021/05/22 12:27:40;;;;;;;;;3.50;3.00;;;;;19.63;51.02;98117.34;6222715;28;124979;-67
2021/05/22 12:30:43;;;;;;;;;3.80;3.00;;;;;19.73;51.01;98121.81;6221548;28;124966;-68
2021/05/22 12:34:03;;;;;;;;;4.20;4.20;;;;;19.80;50.65;98117.59;6226028;28;125093;-68
2021/05/22 12:37:07;;;;;;;;;4.25;4.00;;;;;19.89;50.57;98129.44;6217523;28;125030;-67
2021/05/22 12:40:11;;;;;;;;;4.00;4.00;;;;;20.13;50.58;98114.81;6226001;27;124153;-68
2021/05/22 12:43:16;;;;;;;;;4.00;4.00;;;;;20.26;49.56;98117.56;6215361;28;125405;-69
2021/05/22 12:46:23;;;;;;;;;5.00;4.00;;;;;20.24;48.66;98113.50;6214546;28;126083;-69
2021/05/22 12:49:31;;;;;;;;;4.60;4.00;;;;;20.37;49.15;98104.53;6214587;28;126016;-69
2021/05/22 12:52:48;;;;;;;;;4.00;4.00;;;;;20.46;47.43;98088.19;6201578;28;124887;-68
2021/05/22 12:56:02;;;;;;;;;6.40;5.60;;;;;20.92;48.13;98094.31;6222952;28;124914;-67
2021/05/22 12:59:13;;;;;;;;;5.00;4.80;;;;;21.29;47.26;98104.19;6213158;28;123738;-68
2021/05/22 13:02:24;;;;;;;;;3.00;3.00;;;;;21.31;45.34;98103.88;6224549;28;126052;-67
2021/05/22 13:05:29;;;;;;;;;4.00;3.00;;;;;21.24;43.85;98095.28;6212912;28;126169;-68
2021/05/22 13:08:32;;;;;;;;;4.00;3.40;;;;;21.29;43.76;98100.63;6221034;28;124851;-68
2021/05/22 13:11:35;;;;;;;;;3.60;3.00;;;;;21.29;45.01;98095.16;6216265;28;125280;-68
2021/05/22 13:14:47;;;;;;;;;3.00;3.00;;;;;21.39;43.50;98103.97;6213483;28;123723;-68
2021/05/22 13:17:52;;;;;;;;;4.00;4.00;;;;;21.09;43.59;98099.16;6221328;28;125302;-68
2021/05/22 13:20:57;;;;;;;;;3.75;3.00;;;;;21.07;43.56;98096.72;6230834;27;125947;-68
2021/05/22 13:24:09;;;;;;;;;5.00;4.00;;;;;21.20;44.12;98089.63;6228426;28;123656;-69
2021/05/22 13:27:12;;;;;;;;;4.00;4.00;;;;;21.38;44.12;98094.09;6212780;28;125940;-68
2021/05/22 13:30:22;;;;;;;;;4.00;4.00;;;;;21.37;44.06;98094.41;6218239;28;126276;-68
2021/05/22 13:33:37;;;;;;;;;4.00;3.67;;;;;21.50;44.07;98088.06;6233158;27;124611;-68
2021/05/22 13:36:40;;;;;;;;;5.00;5.00;;;;;21.60;42.63;98093.28;6232752;27;125846;-68
2021/05/22 13:39:43;;;;;;;;;2.50;2.50;;;;;21.72;42.27;98084.50;6199037;28;123904;-67
2021/05/22 13:42:46;;;;;;;;;2.50;2.25;;;;;21.59;42.29;98092.50;6212446;28;123609;-68
2021/05/22 13:45:50;;;;;;;;;4.00;4.00;;;;;21.81;41.90;98091.66;6220688;28;126157;-68
2021/05/22 13:48:52;;;;;;;;;4.00;4.00;;;;;21.94;42.82;98101.75;6217194;27;126397;-68
2021/05/22 13:51:55;;;;;;;;;5.40;4.00;;;;;21.93;41.50;98107.53;6222962;28;125449;-68
2021/05/22 13:54:58;;;;;;;;;5.00;5.00;;;;;21.96;41.57;98098.69;6223469;28;126165;-68
2021/05/22 13:58:01;;;;;;;;;4.00;4.00;;;;;21.87;41.12;98108.78;6212112;28;125283;-68
2021/05/22 14:01:05;;;;;;;;;4.00;4.00;;;;;21.83;41.71;98113.28;6219876;28;125239;-68
2021/05/22 14:04:09;;;;;;;;;4.20;3.00;;;;;21.83;41.76;98121.53;6228413;28;123958;-68
2021/05/22 14:07:11;;;;;;;;;3.00;3.00;;;;;21.88;41.76;98110.41;6234520;27;124174;-68
2021/05/22 14:10:16;;;;;;;;;3.00;3.00;;;;;21.76;39.60;98104.69;6222486;28;126099;-68
2021/05/22 14:13:19;;;;;;;;;3.80;2.80;;;;;21.84;39.94;98118.47;6234176;27;124868;-68
2021/05/22 14:16:23;;;;;;;;;2.00;2.00;;;;;21.52;39.42;98107.75;6230388;28;126218;-68
2021/05/22 14:19:26;;;;;;;;;4.00;3.00;;;;;21.49;39.39;98111.13;6220825;27;125354;-69